createdAt,value
2018-08-09T00:00:01.359Z,11.40
2018-08-09T00:02:14.359Z,11.40
2018-08-09T00:03:17.727Z,11.10
2018-08-09T00:04:21.042Z,12.20
2018-08-09T00:05:24.429Z,12.03
2018-08-09T00:06:27.755Z,11.20
2018-08-09T00:07:31.102Z,11.50
2018-08-09T00:08:34.474Z,11.17
2018-08-09T00:09:44.106Z,11.73
2018-08-09T00:10:47.446Z,11.30
2018-08-09T00:11:50.772Z,12.17
2018-08-09T00:12:54.098Z,11.80
2018-08-09T00:13:57.486Z,10.53
2018-08-09T00:15:00.808Z,12.97
2018-08-09T00:16:04.150Z,12.57
2018-08-09T00:17:07.460Z,12.03
2018-08-09T00:18:10.822Z,11.20
2018-08-09T00:19:14.148Z,11.80
2018-08-09T00:20:17.467Z,13.10
2018-08-09T00:21:20.770Z,11.97
2018-08-09T00:22:24.090Z,12.43
2018-08-09T00:23:27.439Z,12.03
2018-08-09T00:24:30.746Z,12.20
2018-08-09T00:25:34.058Z,11.67
2018-08-09T00:26:37.379Z,12.40
2018-08-09T00:27:40.714Z,11.70
2018-08-09T00:28:44.064Z,11.83
2018-08-09T00:29:47.471Z,10.97
2018-08-09T00:30:50.808Z,11.27
2018-08-09T00:31:54.146Z,11.23
2018-08-09T00:32:57.532Z,11.20
2018-08-09T00:34:00.882Z,10.87
2018-08-09T00:35:04.292Z,11.07
2018-08-09T00:36:07.646Z,11.33
2018-08-09T00:37:11.014Z,11.50
2018-08-09T00:38:14.331Z,12.30
2018-08-09T00:39:17.684Z,10.43
2018-08-09T00:40:20.998Z,12.47
2018-08-09T00:41:24.369Z,11.70
2018-08-09T00:42:27.670Z,12.07
2018-08-09T00:43:30.974Z,12.30
2018-08-09T00:44:34.340Z,12.30
2018-08-09T00:45:37.671Z,12.37
2018-08-09T00:46:40.999Z,11.80
2018-08-09T00:47:44.331Z,12.07
2018-08-09T00:48:47.667Z,11.40
2018-08-09T00:49:51.015Z,13.03
2018-08-09T00:50:54.323Z,12.40
2018-08-09T00:51:57.662Z,12.50
2018-08-09T00:53:01.022Z,11.80
2018-08-09T00:54:04.351Z,12.70
2018-08-09T00:55:07.674Z,11.00
2018-08-09T00:56:10.995Z,13.00
2018-08-09T00:57:14.555Z,12.70
2018-08-09T00:58:17.918Z,11.80
2018-08-09T00:59:21.234Z,12.00
2018-08-09T01:00:24.578Z,11.77
2018-08-09T01:01:27.885Z,11.80
2018-08-09T01:02:31.198Z,11.33
2018-08-09T01:03:34.538Z,11.57
2018-08-09T01:04:37.862Z,12.40
2018-08-09T01:05:41.184Z,13.50
2018-08-09T01:06:44.553Z,11.90
2018-08-09T01:07:47.890Z,12.77
2018-08-09T01:08:56.559Z,12.00
2018-08-09T01:09:59.888Z,12.20
2018-08-09T01:11:03.211Z,13.30
2018-08-09T01:12:06.572Z,11.83
2018-08-09T01:13:09.932Z,11.63
2018-08-09T01:14:13.258Z,11.97
2018-08-09T01:15:16.575Z,11.85
2018-08-09T01:16:19.904Z,12.30
2018-08-09T01:17:23.246Z,12.53
2018-08-09T01:18:26.606Z,13.03
2018-08-09T01:19:29.951Z,12.90
2018-08-09T01:20:33.265Z,11.50
2018-08-09T01:21:36.581Z,12.63
2018-08-09T01:22:39.915Z,11.60
2018-08-09T01:23:43.279Z,12.00
2018-08-09T01:24:46.590Z,13.50
2018-08-09T01:25:49.968Z,11.53
2018-08-09T01:26:53.363Z,12.27
2018-08-09T01:27:56.684Z,11.53
2018-08-09T01:29:00.045Z,11.73
2018-08-09T01:30:03.425Z,12.20
2018-08-09T01:31:06.794Z,11.30
2018-08-09T01:32:10.124Z,11.23
2018-08-09T01:33:13.455Z,12.00
2018-08-09T01:34:16.810Z,12.17
2018-08-09T01:35:20.127Z,12.63
2018-08-09T01:36:23.452Z,12.80
2018-08-09T01:37:26.785Z,12.77
2018-08-09T01:38:30.131Z,13.20
2018-08-09T01:39:33.491Z,11.87
2018-08-09T01:40:36.789Z,12.00
2018-08-09T01:41:46.857Z,12.20
2018-08-09T01:43:01.542Z,12.00
2018-08-09T01:44:05.967Z,11.90
2018-08-09T01:45:09.318Z,12.57
2018-08-09T01:46:12.628Z,11.60
2018-08-09T01:47:15.942Z,12.10
2018-08-09T01:48:19.264Z,12.67
2018-08-09T01:49:22.578Z,13.33
2018-08-09T01:50:25.935Z,12.90
2018-08-09T01:51:29.835Z,12.43
2018-08-09T01:52:33.154Z,13.37
2018-08-09T01:53:36.510Z,12.77
2018-08-09T01:54:39.880Z,12.03
2018-08-09T01:55:43.220Z,12.93
2018-08-09T01:56:46.561Z,14.45
2018-08-09T01:57:49.910Z,12.80
2018-08-09T01:58:53.885Z,13.37
2018-08-09T01:59:57.194Z,12.77
2018-08-09T02:01:00.523Z,12.77
2018-08-09T02:02:03.861Z,12.40
2018-08-09T02:03:07.182Z,13.27
2018-08-09T02:04:10.558Z,11.57
2018-08-09T02:05:13.892Z,12.80
2018-08-09T02:06:17.972Z,13.23
2018-08-09T02:07:21.290Z,14.13
2018-08-09T02:08:24.612Z,14.50
2018-08-09T02:09:33.253Z,14.13
2018-08-09T02:10:36.574Z,14.30
2018-08-09T02:11:39.943Z,13.95
2018-08-09T02:12:43.255Z,13.70
2018-08-09T02:13:46.607Z,13.68
2018-08-09T02:14:49.939Z,13.68
2018-08-09T02:15:53.274Z,13.95
2018-08-09T02:16:56.618Z,14.40
2018-08-09T02:17:59.930Z,14.23
2018-08-09T02:19:03.329Z,14.83
2018-08-09T02:20:06.692Z,14.03
2018-08-09T02:21:10.804Z,14.55
2018-08-09T02:22:14.128Z,14.35
2018-08-09T02:23:17.440Z,14.07
2018-08-09T02:24:20.806Z,13.40
2018-08-09T02:25:24.106Z,13.83
2018-08-09T02:26:27.427Z,14.05
2018-08-09T02:27:30.730Z,14.75
2018-08-09T02:28:34.064Z,14.45
2018-08-09T02:29:37.411Z,14.03
2018-08-09T02:30:40.746Z,13.75
2018-08-09T02:31:44.074Z,13.55
2018-08-09T02:32:47.403Z,13.30
2018-08-09T02:33:50.747Z,13.98
2018-08-09T02:34:54.141Z,14.10
2018-08-09T02:35:57.580Z,13.80
2018-08-09T02:37:01.276Z,14.63
2018-08-09T02:38:04.622Z,12.82
2018-08-09T02:39:09.618Z,13.28
2018-08-09T02:40:12.947Z,13.62
2018-08-09T02:41:16.303Z,13.38
2018-08-09T02:42:19.647Z,14.25
2018-08-09T02:43:23.192Z,13.93
2018-08-09T02:44:26.536Z,13.10
2018-08-09T02:45:29.888Z,14.05
2018-08-09T02:46:33.323Z,15.23
2018-08-09T02:47:36.652Z,14.75
2018-08-09T02:48:39.711Z,14.15
2018-08-09T02:49:42.759Z,14.83
2018-08-09T02:50:45.818Z,15.30
2018-08-09T02:51:48.921Z,15.23
2018-08-09T02:52:51.992Z,15.40
2018-08-09T02:53:55.072Z,15.65
2018-08-09T02:54:58.156Z,15.83
2018-08-09T02:56:01.228Z,15.63
2018-08-09T02:57:04.358Z,16.27
2018-08-09T02:58:07.414Z,16.00
2018-08-09T02:59:10.461Z,15.88
2018-08-09T03:00:13.519Z,15.32
2018-08-09T03:01:16.609Z,15.53
2018-08-09T03:02:19.706Z,16.17
2018-08-09T03:03:22.778Z,16.15
2018-08-09T03:04:25.857Z,15.80
2018-08-09T03:05:28.935Z,15.98
2018-08-09T03:06:31.994Z,16.20
2018-08-09T03:07:35.098Z,15.55
2018-08-09T03:08:38.147Z,16.73
2018-08-09T03:09:41.255Z,15.40
2018-08-09T03:10:44.298Z,15.95
2018-08-09T03:11:47.463Z,16.93
2018-08-09T03:12:50.603Z,16.45
2018-08-09T03:13:53.673Z,15.40
2018-08-09T03:14:56.765Z,15.38
2018-08-09T03:15:59.838Z,16.15
2018-08-09T03:17:02.889Z,15.93
2018-08-09T03:18:05.968Z,15.78
2018-08-09T03:19:09.018Z,15.40
2018-08-09T03:20:12.066Z,15.05
2018-08-09T03:21:15.168Z,16.55
2018-08-09T03:22:18.209Z,16.25
2018-08-09T03:23:21.257Z,16.60
2018-08-09T03:24:24.355Z,15.65
2018-08-09T03:25:27.398Z,15.53
2018-08-09T03:26:30.498Z,15.30
2018-08-09T03:27:33.581Z,15.60
2018-08-09T03:28:36.641Z,15.08
2018-08-09T03:29:39.678Z,15.18
2018-08-09T03:30:42.782Z,15.32
2018-08-09T03:31:45.824Z,14.60
2018-08-09T03:32:48.901Z,13.83
2018-08-09T03:33:51.943Z,14.28
2018-08-09T03:34:54.993Z,15.28
2018-08-09T03:35:58.074Z,16.57
2018-08-09T03:37:01.171Z,15.83
2018-08-09T03:38:04.234Z,16.30
2018-08-09T03:39:07.582Z,16.07
2018-08-09T03:40:10.667Z,17.42
2018-08-09T03:41:13.723Z,17.20
2018-08-09T03:42:16.806Z,16.67
2018-08-09T03:43:19.870Z,16.82
2018-08-09T03:44:22.914Z,17.73
2018-08-09T03:45:26.022Z,16.87
2018-08-09T03:46:29.079Z,16.75
2018-08-09T03:47:32.170Z,18.00
2018-08-09T03:48:35.218Z,16.87
2018-08-09T03:49:38.273Z,17.05
2018-08-09T03:50:41.336Z,18.40
2018-08-09T03:51:44.443Z,17.37
2018-08-09T03:52:47.532Z,18.75
2018-08-09T03:53:50.614Z,17.70
2018-08-09T03:54:53.665Z,16.75
2018-08-09T03:55:56.719Z,16.70
2018-08-09T03:56:59.846Z,17.12
2018-08-09T03:58:02.901Z,16.62
2018-08-09T03:59:05.958Z,16.65
2018-08-09T04:00:09.613Z,15.75
2018-08-09T04:01:12.675Z,15.10
2018-08-09T04:02:15.794Z,17.00
2018-08-09T04:03:18.858Z,16.25
2018-08-09T04:04:21.902Z,15.93
2018-08-09T04:05:24.959Z,17.25
2018-08-09T04:06:28.035Z,15.72
2018-08-09T04:07:31.149Z,17.27
2018-08-09T04:08:34.201Z,16.23
2018-08-09T04:09:37.250Z,17.48
2018-08-09T04:10:40.296Z,16.90
2018-08-09T04:11:43.351Z,17.15
2018-08-09T04:12:46.455Z,15.65
2018-08-09T04:13:49.545Z,16.27
2018-08-09T04:14:52.601Z,14.80
2018-08-09T04:15:55.737Z,15.20
2018-08-09T04:16:58.803Z,16.27
2018-08-09T04:18:01.851Z,15.60
2018-08-09T04:19:04.995Z,16.60
2018-08-09T04:20:08.036Z,17.05
2018-08-09T04:21:11.117Z,17.07
2018-08-09T04:22:14.201Z,16.55
2018-08-09T04:23:17.266Z,16.60
2018-08-09T04:24:20.314Z,15.90
2018-08-09T04:25:23.378Z,16.90
2018-08-09T04:26:26.482Z,16.25
2018-08-09T04:27:29.541Z,15.63
2018-08-09T04:28:32.604Z,15.45
2018-08-09T04:29:35.669Z,16.30
2018-08-09T04:30:38.761Z,14.87
2018-08-09T04:31:41.871Z,14.40
2018-08-09T04:32:44.947Z,16.73
2018-08-09T04:33:47.998Z,16.07
2018-08-09T04:34:51.061Z,14.98
2018-08-09T04:35:54.102Z,15.25
2018-08-09T04:36:57.190Z,14.90
2018-08-09T04:39:09.950Z,15.70
2018-08-09T04:40:13.015Z,16.23
2018-08-09T04:41:16.078Z,15.45
2018-08-09T04:42:19.166Z,15.15
2018-08-09T04:43:22.236Z,14.98
2018-08-09T04:44:25.312Z,15.50
2018-08-09T04:45:28.434Z,14.95
2018-08-09T04:46:31.502Z,15.80
2018-08-09T04:47:34.614Z,14.28
2018-08-09T04:48:37.783Z,15.00
2018-08-09T04:49:40.824Z,14.87
2018-08-09T04:50:43.881Z,15.25
2018-08-09T04:51:46.926Z,15.50
2018-08-09T04:52:50.023Z,15.28
2018-08-09T04:53:53.109Z,14.93
2018-08-09T04:54:56.161Z,17.00
2018-08-09T04:55:59.354Z,17.25
2018-08-09T04:57:02.440Z,16.75
2018-08-09T04:58:05.677Z,16.17
2018-08-09T04:59:08.700Z,16.45
2018-08-09T05:00:11.754Z,16.35
2018-08-09T05:01:14.822Z,16.05
2018-08-09T05:02:17.892Z,15.23
2018-08-09T05:03:20.986Z,17.02
2018-08-09T05:04:24.034Z,16.60
2018-08-09T05:05:27.085Z,16.85
2018-08-09T05:06:30.127Z,15.98
2018-08-09T05:07:33.201Z,16.52
2018-08-09T05:08:36.295Z,16.62
2018-08-09T05:09:39.353Z,16.20
2018-08-09T05:10:42.394Z,16.10
2018-08-09T05:11:45.459Z,15.85
2018-08-09T05:12:48.508Z,15.80
2018-08-09T05:13:51.590Z,16.40
2018-08-09T05:14:54.634Z,15.50
2018-08-09T05:15:57.725Z,16.57
2018-08-09T05:17:00.766Z,16.75
2018-08-09T05:18:03.813Z,16.62
2018-08-09T05:19:06.893Z,16.95
2018-08-09T05:20:09.946Z,15.68
2018-08-09T05:21:13.012Z,16.30
2018-08-09T05:22:16.059Z,16.15
2018-08-09T05:23:19.178Z,16.07
2018-08-09T05:24:22.239Z,17.00
2018-08-09T05:25:25.322Z,17.00
2018-08-09T05:26:28.410Z,16.25
2018-08-09T05:27:31.467Z,16.20
2018-08-09T05:28:34.554Z,16.82
2018-08-09T05:29:37.607Z,16.90
2018-08-09T05:30:40.659Z,16.90
2018-08-09T05:31:43.702Z,16.70
2018-08-09T05:32:46.843Z,17.50
2018-08-09T05:33:49.945Z,16.15
2018-08-09T05:34:53.018Z,16.48
2018-08-09T05:35:56.078Z,17.85
2018-08-09T05:36:59.194Z,15.93
2018-08-09T05:38:02.265Z,16.60
2018-08-09T05:39:07.075Z,17.67
2018-08-09T05:40:10.134Z,17.95
2018-08-09T05:41:19.754Z,17.75
2018-08-09T05:42:22.849Z,16.05
2018-08-09T05:43:25.919Z,16.90
2018-08-09T05:44:28.961Z,16.05
2018-08-09T05:45:32.033Z,17.37
2018-08-09T05:46:35.102Z,17.35
2018-08-09T05:47:38.201Z,17.62
2018-08-09T05:48:41.282Z,16.48
2018-08-09T05:49:44.342Z,16.70
2018-08-09T05:50:47.393Z,15.90
2018-08-09T05:51:50.446Z,16.90
2018-08-09T05:52:53.569Z,15.90
2018-08-09T05:53:56.654Z,16.55
2018-08-09T05:54:59.709Z,19.37
2018-08-09T05:56:02.778Z,17.87
2018-08-09T05:57:05.842Z,17.70
2018-08-09T05:58:08.994Z,17.37
2018-08-09T05:59:12.060Z,19.07
2018-08-09T06:00:15.115Z,18.35
2018-08-09T06:01:24.845Z,18.48
2018-08-09T06:02:27.890Z,19.30
2018-08-09T06:03:30.982Z,18.20
2018-08-09T06:04:34.029Z,18.50
2018-08-09T06:05:37.095Z,19.23
2018-08-09T06:06:40.191Z,18.20
2018-08-09T06:07:43.440Z,18.20
2018-08-09T06:08:46.517Z,19.00
2018-08-09T06:09:49.602Z,18.73
2018-08-09T06:10:52.626Z,18.87
2018-08-09T06:11:55.674Z,17.83
2018-08-09T06:12:58.730Z,18.90
2018-08-09T06:14:01.826Z,15.90
2018-08-09T06:15:04.905Z,17.80
2018-08-09T06:16:08.003Z,18.43
2018-08-09T06:17:11.059Z,19.00
2018-08-09T06:18:14.369Z,18.83
2018-08-09T06:19:17.432Z,16.73
2018-08-09T06:20:20.597Z,19.10
2018-08-09T06:21:23.633Z,17.73
2018-08-09T06:22:26.800Z,16.63
2018-08-09T06:23:29.902Z,17.13
2018-08-09T06:24:32.954Z,18.10
2018-08-09T06:25:36.006Z,17.67
2018-08-09T06:26:39.070Z,19.37
2018-08-09T06:27:42.126Z,18.80
2018-08-09T06:28:45.257Z,17.57
2018-08-09T06:29:48.338Z,16.37
2018-08-09T06:30:51.381Z,17.63
2018-08-09T06:31:54.425Z,16.70
2018-08-09T06:32:57.474Z,17.40
2018-08-09T06:34:00.518Z,17.33
2018-08-09T06:35:04.797Z,17.10
2018-08-09T06:36:07.868Z,18.27
2018-08-09T06:37:10.931Z,17.63
2018-08-09T06:38:14.009Z,17.20
2018-08-09T06:39:17.070Z,17.93
2018-08-09T06:40:20.137Z,18.07
2018-08-09T06:41:23.202Z,18.40
2018-08-09T06:42:26.278Z,20.23
2018-08-09T06:43:29.355Z,18.80
2018-08-09T06:44:32.458Z,17.70
2018-08-09T06:45:35.505Z,17.73
2018-08-09T06:46:38.622Z,18.00
2018-08-09T06:47:41.729Z,18.20
2018-08-09T06:48:44.780Z,17.43
2018-08-09T06:49:47.826Z,17.00
2018-08-09T06:50:50.917Z,17.57
2018-08-09T06:51:54.084Z,16.40
2018-08-09T06:52:57.146Z,17.10
2018-08-09T06:54:00.251Z,19.00
2018-08-09T06:55:03.542Z,17.80
2018-08-09T06:56:06.599Z,18.57
2018-08-09T06:57:09.640Z,18.63
2018-08-09T06:58:12.750Z,17.17
2018-08-09T06:59:15.789Z,19.17
2018-08-09T07:00:18.830Z,17.87
2018-08-09T07:01:21.894Z,17.97
2018-08-09T07:02:24.938Z,18.70
2018-08-09T07:03:28.045Z,19.33
2018-08-09T07:04:31.105Z,19.70
2018-08-09T07:05:34.190Z,21.53
2018-08-09T07:06:37.249Z,19.60
2018-08-09T07:07:40.993Z,19.60
2018-08-09T07:08:44.082Z,20.00
2018-08-09T07:09:47.128Z,19.23
2018-08-09T07:10:50.177Z,19.37
2018-08-09T07:11:53.217Z,20.43
2018-08-09T07:12:56.307Z,20.00
2018-08-09T07:13:59.361Z,19.53
2018-08-09T07:15:02.442Z,20.00
2018-08-09T07:16:05.621Z,19.10
2018-08-09T07:17:08.687Z,18.80
2018-08-09T07:18:11.742Z,19.37
2018-08-09T07:19:14.832Z,18.70
2018-08-09T07:20:17.927Z,17.03
2018-08-09T07:21:20.983Z,18.50
2018-08-09T07:22:24.066Z,18.13
2018-08-09T07:23:27.112Z,19.03
2018-08-09T07:24:30.210Z,18.17
2018-08-09T07:25:33.286Z,19.30
2018-08-09T07:26:36.326Z,21.63
2018-08-09T07:27:39.405Z,19.50
2018-08-09T07:28:42.455Z,19.87
2018-08-09T07:29:45.542Z,21.03
2018-08-09T07:30:48.608Z,20.10
2018-08-09T07:31:51.675Z,20.40
2018-08-09T07:32:54.730Z,17.97
2018-08-09T07:33:57.833Z,17.90
2018-08-09T07:35:00.877Z,18.77
2018-08-09T07:36:03.935Z,18.03
2018-08-09T07:37:07.258Z,20.10
2018-08-09T07:38:10.319Z,18.80
2018-08-09T07:39:13.455Z,18.50
2018-08-09T07:40:16.482Z,18.87
2018-08-09T07:41:19.539Z,18.97
2018-08-09T07:42:22.629Z,18.10
2018-08-09T07:43:25.711Z,19.20
2018-08-09T07:44:28.790Z,18.40
2018-08-09T07:45:31.878Z,17.93
2018-08-09T07:46:34.941Z,18.40
2018-08-09T07:47:38.082Z,18.30
2018-08-09T07:48:41.144Z,19.30
2018-08-09T07:49:44.211Z,18.20
2018-08-09T07:50:47.310Z,18.10
2018-08-09T07:51:50.367Z,19.40
2018-08-09T07:52:53.430Z,19.03
2018-08-09T07:53:56.494Z,18.40
2018-08-09T07:54:59.559Z,17.67
2018-08-09T07:56:02.635Z,17.03
2018-08-09T07:57:05.829Z,16.00
2018-08-09T07:58:08.807Z,15.67
2018-08-09T07:59:11.933Z,17.33
2018-08-09T08:00:15.065Z,16.47
2018-08-09T08:01:18.154Z,14.57
2018-08-09T08:02:21.213Z,13.80
2018-08-09T08:03:24.282Z,14.47
2018-08-09T08:04:27.351Z,12.90
2018-08-09T08:05:30.398Z,14.13
2018-08-09T08:06:33.483Z,13.20
2018-08-09T08:07:37.215Z,11.53
2018-08-09T08:08:40.302Z,14.27
2018-08-09T08:09:43.377Z,13.03
2018-08-09T08:10:47.907Z,12.43
2018-08-09T08:11:50.951Z,14.20
2018-08-09T08:12:54.029Z,12.10
2018-08-09T08:13:57.070Z,13.63
2018-08-09T08:15:00.155Z,12.93
2018-08-09T08:16:03.222Z,13.63
2018-08-09T08:17:06.275Z,12.27
2018-08-09T08:18:09.354Z,11.63
2018-08-09T08:19:12.422Z,12.10
2018-08-09T08:20:15.759Z,12.37
2018-08-09T08:21:19.084Z,12.50
2018-08-09T08:22:22.398Z,12.30
2018-08-09T08:23:25.761Z,12.50
2018-08-09T08:24:29.068Z,11.47
2018-08-09T08:25:32.375Z,12.27
2018-08-09T08:26:35.891Z,12.77
2018-08-09T08:27:39.234Z,11.70
2018-08-09T08:28:42.558Z,11.73
2018-08-09T08:29:45.875Z,12.23
2018-08-09T08:30:49.226Z,11.57
2018-08-09T08:31:53.009Z,11.60
2018-08-09T08:32:56.359Z,9.90
2018-08-09T08:33:59.692Z,10.40
2018-08-09T08:35:03.092Z,11.00
2018-08-09T08:36:06.435Z,11.20
2018-08-09T08:37:09.831Z,11.03
2018-08-09T08:38:13.163Z,11.47
2018-08-09T08:39:16.510Z,12.50
2018-08-09T08:40:19.895Z,11.57
2018-08-09T08:41:23.359Z,10.00
2018-08-09T08:42:26.659Z,10.60
2018-08-09T08:43:29.983Z,10.30
2018-08-09T08:44:33.350Z,10.50
2018-08-09T08:45:36.695Z,10.30
2018-08-09T08:46:40.019Z,10.90
2018-08-09T08:47:43.784Z,10.17
2018-08-09T08:48:47.114Z,10.60
2018-08-09T08:49:50.484Z,11.50
2018-08-09T08:50:53.802Z,11.37
2018-08-09T08:51:57.150Z,10.43
2018-08-09T08:53:00.513Z,11.20
2018-08-09T08:54:03.915Z,10.30
2018-08-09T08:55:08.742Z,10.00
2018-08-09T08:56:12.084Z,10.83
2018-08-09T08:57:15.411Z,10.00
2018-08-09T08:58:18.765Z,10.43
2018-08-09T08:59:22.143Z,10.43
2018-08-09T09:00:25.523Z,9.60
2018-08-09T09:01:28.881Z,10.30
2018-08-09T09:02:32.204Z,9.70
2018-08-09T09:03:35.644Z,9.80
2018-08-09T09:04:38.999Z,10.60
2018-08-09T09:05:42.389Z,10.03
2018-08-09T09:06:45.758Z,9.43
2018-08-09T09:07:55.763Z,9.30
2018-08-09T09:08:59.079Z,9.30
2018-08-09T09:10:02.419Z,10.70
2018-08-09T09:11:05.814Z,9.57
2018-08-09T09:12:09.142Z,9.50
2018-08-09T09:13:12.493Z,9.20
2018-08-09T09:14:15.850Z,9.50
2018-08-09T09:15:19.172Z,9.13
2018-08-09T09:16:22.536Z,9.93
2018-08-09T09:17:25.909Z,9.27
2018-08-09T09:18:29.226Z,9.40
2018-08-09T09:19:32.542Z,9.13
2018-08-09T09:20:35.895Z,9.40
2018-08-09T09:21:39.207Z,8.93
2018-08-09T09:22:43.222Z,9.40
2018-08-09T09:23:46.599Z,9.57
2018-08-09T09:24:49.920Z,9.50
2018-08-09T09:25:53.270Z,9.03
2018-08-09T09:26:56.656Z,9.57
2018-08-09T09:27:59.974Z,9.63
2018-08-09T09:29:03.372Z,9.43
2018-08-09T09:30:09.196Z,10.00
2018-08-09T09:31:12.519Z,10.33
2018-08-09T09:32:15.855Z,8.70
2018-08-09T09:33:19.219Z,8.90
2018-08-09T09:34:22.538Z,8.70
2018-08-09T09:35:25.841Z,9.63
2018-08-09T09:36:29.208Z,9.03
2018-08-09T09:37:32.539Z,9.80
2018-08-09T09:38:35.904Z,9.10
2018-08-09T09:39:39.378Z,9.80
2018-08-09T09:40:42.751Z,9.90
2018-08-09T09:41:46.074Z,9.10
2018-08-09T09:42:49.404Z,8.87
2018-08-09T09:43:52.727Z,9.23
2018-08-09T09:44:56.063Z,8.83
2018-08-09T09:45:59.434Z,8.70
2018-08-09T09:47:02.754Z,8.50
2018-08-09T09:48:06.126Z,8.00
2018-08-09T09:49:09.426Z,9.13
2018-08-09T09:50:12.854Z,8.40
2018-08-09T09:51:16.199Z,7.93
2018-08-09T09:52:26.050Z,8.90
2018-08-09T09:53:29.365Z,8.70
2018-08-09T09:54:32.683Z,7.90
2018-08-09T09:55:36.028Z,8.30
2018-08-09T09:56:39.351Z,8.40
2018-08-09T09:57:42.678Z,8.13
2018-08-09T09:58:45.983Z,8.20
2018-08-09T09:59:49.333Z,8.87
2018-08-09T10:00:57.903Z,8.30
2018-08-09T10:02:01.233Z,9.20
2018-08-09T10:03:04.562Z,8.53
2018-08-09T10:04:07.900Z,8.40
2018-08-09T10:05:11.224Z,8.73
2018-08-09T10:06:14.547Z,8.87
2018-08-09T10:07:17.946Z,8.13
2018-08-09T10:08:21.233Z,8.20
2018-08-09T10:09:24.546Z,8.30
2018-08-09T10:10:27.932Z,9.17
2018-08-09T10:11:31.587Z,7.43
2018-08-09T10:12:35.062Z,8.00
2018-08-09T10:13:38.383Z,8.17
2018-08-09T10:14:41.735Z,8.73
2018-08-09T10:15:51.511Z,8.00
2018-08-09T10:16:54.818Z,7.30
2018-08-09T10:17:58.123Z,8.70
2018-08-09T10:19:01.432Z,8.87
2018-08-09T10:20:05.443Z,7.93
2018-08-09T10:21:08.782Z,8.50
2018-08-09T10:22:12.085Z,8.80
2018-08-09T10:23:15.439Z,7.73
2018-08-09T10:24:18.771Z,8.63
2018-08-09T10:25:22.115Z,8.50
2018-08-09T10:26:25.483Z,8.27
2018-08-09T10:27:28.800Z,8.57
2018-08-09T10:28:32.119Z,7.80
2018-08-09T10:29:35.439Z,8.67
2018-08-09T10:30:38.789Z,8.00
2018-08-09T10:31:42.099Z,8.10
2018-08-09T10:32:45.410Z,8.17
2018-08-09T10:33:48.730Z,7.83
2018-08-09T10:34:52.063Z,8.33
2018-08-09T10:35:55.438Z,8.60
2018-08-09T10:36:58.778Z,7.80
2018-08-09T10:38:02.099Z,8.03
2018-08-09T10:39:08.693Z,8.40
2018-08-09T10:40:12.014Z,8.60
2018-08-09T10:41:15.308Z,7.70
2018-08-09T10:42:18.669Z,8.20
2018-08-09T10:43:21.976Z,7.93
2018-08-09T10:44:25.286Z,8.10
2018-08-09T10:45:28.674Z,7.97
2018-08-09T10:46:32.018Z,7.90
2018-08-09T10:47:35.394Z,7.90
2018-08-09T10:48:38.733Z,8.70
2018-08-09T10:49:42.058Z,8.13
2018-08-09T10:50:45.402Z,7.90
2018-08-09T10:51:48.750Z,8.63
2018-08-09T10:52:52.100Z,8.20
2018-08-09T10:53:55.463Z,8.17
2018-08-09T10:54:58.807Z,7.50
2018-08-09T10:56:02.132Z,6.97
2018-08-09T10:57:05.543Z,7.03
2018-08-09T10:58:08.865Z,7.73
2018-08-09T10:59:12.207Z,7.43
2018-08-09T11:00:15.602Z,6.97
2018-08-09T11:01:18.949Z,7.53
2018-08-09T11:02:22.287Z,7.27
2018-08-09T11:03:25.635Z,7.80
2018-08-09T11:04:29.008Z,8.03
2018-08-09T11:05:32.392Z,7.63
2018-08-09T11:06:35.727Z,7.77
2018-08-09T11:07:39.166Z,8.00
2018-08-09T11:08:42.528Z,7.50
2018-08-09T11:09:45.867Z,7.40
2018-08-09T11:10:49.190Z,7.37
2018-08-09T11:11:52.510Z,7.93
2018-08-09T11:12:55.879Z,7.23
2018-08-09T11:13:59.205Z,7.60
2018-08-09T11:15:02.617Z,7.00
2018-08-09T11:16:05.895Z,7.40
2018-08-09T11:17:09.232Z,7.00
2018-08-09T11:18:12.636Z,7.13
2018-08-09T11:19:15.958Z,6.73
2018-08-09T11:20:25.690Z,7.47
2018-08-09T11:21:29.040Z,6.43
2018-08-09T11:22:32.363Z,6.60
2018-08-09T11:23:35.739Z,6.03
2018-08-09T11:24:39.085Z,6.50
2018-08-09T11:25:42.428Z,5.90
2018-08-09T11:26:45.759Z,6.90
2018-08-09T11:27:49.058Z,5.77
2018-08-09T11:28:52.378Z,6.07
2018-08-09T11:29:55.698Z,5.13
2018-08-09T11:30:59.168Z,6.37
2018-08-09T11:32:02.481Z,6.53
2018-08-09T11:33:05.914Z,6.73
2018-08-09T11:34:09.283Z,5.90
2018-08-09T11:35:12.623Z,6.37
2018-08-09T11:36:15.935Z,6.37
2018-08-09T11:37:19.300Z,6.60
2018-08-09T11:38:22.620Z,6.23
2018-08-09T11:39:25.930Z,5.83
2018-08-09T11:40:29.338Z,5.70
2018-08-09T11:41:32.712Z,5.80
2018-08-09T11:42:36.052Z,6.17
2018-08-09T11:43:39.378Z,5.70
2018-08-09T11:44:42.691Z,5.83
2018-08-09T11:45:46.164Z,6.00
2018-08-09T11:46:49.607Z,5.50
2018-08-09T11:47:52.923Z,5.20
2018-08-09T11:48:56.282Z,6.20
2018-08-09T11:49:59.614Z,5.97
2018-08-09T11:51:02.963Z,5.67
2018-08-09T11:52:06.394Z,5.87
2018-08-09T11:53:09.730Z,5.90
2018-08-09T11:54:13.060Z,6.13
2018-08-09T11:55:16.419Z,5.40
2018-08-09T11:56:19.841Z,5.83
2018-08-09T11:57:23.175Z,5.90
2018-08-09T11:58:26.536Z,5.20
2018-08-09T11:59:29.867Z,5.73
2018-08-09T12:00:33.282Z,5.63
2018-08-09T12:01:36.664Z,5.37
2018-08-09T12:02:39.995Z,5.30
2018-08-09T12:03:43.364Z,5.20
2018-08-09T12:04:46.687Z,4.40
2018-08-09T12:05:50.043Z,5.20
2018-08-09T12:06:53.368Z,4.83
2018-08-09T12:07:56.707Z,5.60
2018-08-09T12:09:00.039Z,5.53
2018-08-09T12:10:03.410Z,5.63
2018-08-09T12:11:06.914Z,5.30
2018-08-09T12:12:10.244Z,5.03
2018-08-09T12:13:13.615Z,5.47
2018-08-09T12:14:16.987Z,5.80
2018-08-09T12:15:23.322Z,6.00
2018-08-09T12:16:26.716Z,6.47
2018-08-09T12:17:30.034Z,5.50
2018-08-09T12:18:33.411Z,6.10
2018-08-09T12:19:36.735Z,6.63
2018-08-09T12:20:40.091Z,5.70
2018-08-09T12:21:43.432Z,5.77
2018-08-09T12:22:46.771Z,6.90
2018-08-09T12:23:50.118Z,5.90
2018-08-09T12:24:53.435Z,6.57
2018-08-09T12:25:56.757Z,6.57
2018-08-09T12:27:00.192Z,5.87
2018-08-09T12:28:03.562Z,6.03
2018-08-09T12:29:06.895Z,5.83
2018-08-09T12:30:12.927Z,6.50
2018-08-09T12:31:16.242Z,6.37
2018-08-09T12:32:19.627Z,6.33
2018-08-09T12:33:23.001Z,7.40
2018-08-09T12:34:26.346Z,6.47
2018-08-09T12:35:29.695Z,6.93
2018-08-09T12:36:33.036Z,5.60
2018-08-09T12:37:36.438Z,6.80
2018-08-09T12:38:39.791Z,6.90
2018-08-09T12:39:43.147Z,6.30
2018-08-09T12:40:46.476Z,6.33
2018-08-09T12:41:49.826Z,7.07
2018-08-09T12:42:53.206Z,6.20
2018-08-09T12:43:56.576Z,6.97
2018-08-09T12:44:59.943Z,6.77
2018-08-09T12:46:03.292Z,6.63
2018-08-09T12:47:06.619Z,6.00
2018-08-09T12:48:09.943Z,7.03
2018-08-09T12:49:13.314Z,6.80
2018-08-09T12:50:16.690Z,6.90
2018-08-09T12:51:20.035Z,7.07
2018-08-09T12:52:23.363Z,6.40
2018-08-09T12:53:26.732Z,6.77
2018-08-09T12:54:30.124Z,7.43
2018-08-09T12:55:33.507Z,6.43
2018-08-09T12:56:36.819Z,6.67
2018-08-09T12:57:40.168Z,6.40
2018-08-09T12:58:43.492Z,6.00
2018-08-09T12:59:46.863Z,5.90
2018-08-09T13:00:50.213Z,5.63
2018-08-09T13:01:53.516Z,6.63
2018-08-09T13:02:56.870Z,6.83
2018-08-09T13:04:00.258Z,7.10
2018-08-09T13:05:03.758Z,7.40
2018-08-09T13:06:07.109Z,6.03
2018-08-09T13:07:10.497Z,7.27
2018-08-09T13:08:13.861Z,6.70
2018-08-09T13:09:17.224Z,6.87
2018-08-09T13:10:20.628Z,6.93
2018-08-09T13:11:24.004Z,7.33
2018-08-09T13:12:27.344Z,7.03
2018-08-09T13:13:30.697Z,6.70
2018-08-09T13:14:34.045Z,6.43
2018-08-09T13:15:37.435Z,6.60
2018-08-09T13:16:40.839Z,6.67
2018-08-09T13:17:45.143Z,6.17
2018-08-09T13:18:48.467Z,6.50
2018-08-09T13:19:51.809Z,5.93
2018-08-09T13:20:55.154Z,6.20
2018-08-09T13:21:58.484Z,7.20
2018-08-09T13:23:01.855Z,7.00
2018-08-09T13:24:05.207Z,6.60
2018-08-09T13:25:08.555Z,6.60
2018-08-09T13:26:11.971Z,7.77
2018-08-09T13:27:15.572Z,6.40
2018-08-09T13:28:18.903Z,6.80
2018-08-09T13:29:22.239Z,6.73
2018-08-09T13:30:25.621Z,6.63
2018-08-09T13:31:28.986Z,6.80
2018-08-09T13:32:32.338Z,6.33
2018-08-09T13:33:35.949Z,6.60
2018-08-09T13:34:39.268Z,6.27
2018-08-09T13:35:42.655Z,6.23
2018-08-09T13:36:46.085Z,6.10
2018-08-09T13:37:49.415Z,6.97
2018-08-09T13:38:52.786Z,6.37
2018-08-09T13:39:56.183Z,5.67
2018-08-09T13:40:59.558Z,6.43
2018-08-09T13:42:02.912Z,6.77
2018-08-09T13:43:06.254Z,6.63
2018-08-09T13:44:09.688Z,5.93
2018-08-09T13:45:15.098Z,6.17
2018-08-09T13:46:18.499Z,6.43
2018-08-09T13:47:21.847Z,6.57